Latest Conditions
At L.F.Wade Int. Airport
Recorded at 3:55 pm
Partly Cloudy
Temp.: 
23°C/74°F
Humidity: 
68%
Wind: 
W 13KT
or 15mph
UV Index: 
5
Island Observations
Observations
Sunday, April 23, 2017

Observations are in local time and taken at least once an hour, or upon the start and end of specified events such as showers and thunderstorms.

Time Sky / Weather Wind Speed/Gusts Temp. R.H. Pressure
     knots (mph)  °C (°F)  %  mb / "Hg
 15:55 Partly Cloudy  W 13/0 (15/0) 23(74) 68 1018 / 30.07
 14:55 Partly Cloudy  W 12/0 (14/0) 23(74) 68 1018 / 30.07
 13:55 Partly Cloudy  W 12/0 (14/0) 23(73) 70 1019 / 30.09
 12:55 Partly Cloudy  W 11/0 (13/0) 23(73) 72 1019 / 30.09
 11:55 Partly Cloudy  WNW 10/0 (12/0) 22(72) 70 1019 / 30.10
 10:55 Few Clouds  W 11/0 (13/0) 22(72) 71 1019 / 30.10
 09:55 Partly Cloudy  W 13/0 (15/0) 22(71) 75 1019 / 30.09
 09:12 Partly Cloudy  W 11/0 (13/0) 22(71) 77 1019 / 30.08
 08:55 Partly Cloudy  W 10/0 (12/0) 21(71) 78 1019 / 30.08
 07:55 Mostly Cloudy  W 10/0 (12/0) 20(69) 81 1018 / 30.07
 06:55 Mostly Cloudy  W 12/0 (14/0) 20(69) 82 1018 / 30.05
 05:55 Overcast  W 10/0 (12/0) 20(68) 85 1017 / 30.03
 04:55 Mostly Cloudy  W 10/0 (12/0) 20(68) 86 1017 / 30.02
 03:55 Mostly Cloudy  W 10/0 (12/0) 20(68) 87 1017 / 30.03
 02:55 Partly Cloudy  WSW 9/0 (10/0) 20(68) 88 1017 / 30.04
 01:55 Few Clouds  WSW 7/0 (8/0) 20(67) 89 1018 / 30.05
 00:55 Few Clouds  WSW 6/0 (7/0) 20(68) 88 1018 / 30.06
 23:55 Partly Cloudy  W 8/0 (9/0) 20(69) 87 1018 / 30.07
 22:55 Partly Cloudy  W 8/0 (9/0) 20(69) 86 1019 / 30.08
 21:55 Mostly Cloudy  W 9/0 (10/0) 20(69) 87 1019 / 30.09
 20:55 Mostly Cloudy  W 10/0 (12/0) 21(69) 86 1018 / 30.07
 20:25 Mostly Cloudy  W 11/0 (13/0) 21(69) 85 1018 / 30.07
 19:55 Mostly Cloudy  WNW 12/0 (14/0) 21(69) 85 1018 / 30.07
 19:15 Mostly Cloudy  W 13/0 (15/0) 21(70) 83 1018 / 30.06
 18:55 Mostly Cloudy  W 14/0 (16/0) 21(70) 83 1018 / 30.06
 17:55 Mostly Cloudy  W 14/0 (16/0) 22(72) 81 1018 / 30.05
 16:55 Mostly Cloudy  W 14/0 (16/0) 22(72) 80 1017 / 30.04
 15:55 Mostly Cloudy  W 16/0 (18/0) 23(73) 77 1017 / 30.03
 14:55 Few Clouds  W 14/0 (16/0) 23(74) 76 1017 / 30.04
 13:55 Few Clouds  W 14/0 (16/0) 23(73) 76 1018 / 30.06
 13:24 Partly Cloudy  W 14/0 (16/0) 23(73) 77 1018 / 30.05
 12:55 Few Clouds  W 15/0 (17/0) 23(73) 77 1018 / 30.06
 11:55 Few Clouds  WNW 11/0 (13/0) 22(72) 78 1018 / 30.07
 10:55 Few Clouds  WNW 12/0 (14/0) 22(71) 78 1018 / 30.07
 09:55 Few Clouds  WNW 15/0 (17/0) 22(71) 79 1018 / 30.06
 08:55 Few Clouds  WNW 15/0 (17/0) 21(70) 80 1018 / 30.05
 07:55 Few Clouds  WNW 15/0 (17/0) 20(68) 82 1017 / 30.04
 06:55 Few Clouds  WNW 13/0 (15/0) 20(67) 83 1017 / 30.03
 05:55 Partly Cloudy  WNW 15/0 (17/0) 20(67) 82 1017 / 30.02
 04:55 Few Clouds  WNW 12/0 (14/0) 20(67) 80 1016 / 30.01
 03:55 Few Clouds  WNW 12/0 (14/0) 20(67) 78 1017 / 30.02
 02:55 Partly Cloudy  WNW 13/0 (15/0) 20(67) 78 1017 / 30.02
 01:55 Partly Cloudy  WNW 13/0 (15/0) 20(67) 76 1017 / 30.04
 00:55 Partly Cloudy  WNW 14/0 (16/0) 20(67) 75 1018 / 30.05
 23:55 Partly Cloudy  WNW 13/0 (15/0) 20(67) 74 1018 / 30.05
 22:55 Partly Cloudy  WNW 14/0 (16/0) 20(67) 73 1018 / 30.05
 21:55 Partly Cloudy  WNW 14/0 (16/0) 20(67) 72 1018 / 30.06
 20:55 Mostly Cloudy  WNW 16/0 (18/0) 20(67) 73 1018 / 30.05
 19:55 Mostly Cloudy  WNW 16/0 (18/0) 20(68) 71 1017 / 30.04
 18:55 Partly Cloudy  W 14/0 (16/0) 20(69) 67 1017 / 30.04
 17:55 Partly Cloudy  W 14/0 (16/0) 20(69) 65 1017 / 30.03
 16:55 Few Clouds  WNW 13/0 (15/0) 21(70) 61 1017 / 30.03
 15:55 Partly Cloudy  W 12/0 (14/0) 21(71) 60 1018 / 30.05
 14:55 Partly Cloudy  NW 9/0 (10/0) 21(70) 61 1018 / 30.07
 13:55 Mostly Cloudy  NW 10/0 (12/0) 21(70) 58 1019 / 30.08
 12:55 Few Clouds  NNW 7/0 (8/0) 21(70) 56 1019 / 30.09
 11:55 Few Clouds  WNW 7/0 (8/0) 20(68) 58 1019 / 30.09
 10:55 Few Clouds  NNW 8/0 (9/0) 20(68) 58 1019 / 30.10
 09:55 Few Clouds  NNW 8/0 (9/0) 20(67) 60 1019 / 30.10
 08:55 Few Clouds  N 7/0 (8/0) 19(66) 59 1019 / 30.10
 07:55 Few Clouds  NNW 7/0 (8/0) 18(64) 62 1019 / 30.10
 06:55 Mostly Cloudy  N 7/0 (8/0) 18(64) 65 1019 / 30.09
 05:55 Mostly Cloudy  N 8/0 (9/0) 18(64) 63 1019 / 30.08
 04:55 Mostly Cloudy  N 7/0 (8/0) 18(64) 62 1018 / 30.07
 03:55 Mostly Cloudy  N 8/0 (9/0) 18(64) 60 1019 / 30.08
 02:55 Mostly Cloudy  N 8/0 (9/0) 18(64) 63 1019 / 30.09
 01:55 Mostly Cloudy  N 7/0 (8/0) 18(64) 61 1019 / 30.10
 00:55 Mostly Cloudy  N 6/0 (7/0) 18(64) 60 1020 / 30.11
 23:55 Mostly Cloudy  N 6/0 (7/0) 17(63) 60 1020 / 30.11
 22:55 Mostly Cloudy  N 8/0 (9/0) 18(64) 59 1020 / 30.13
 21:55 Partly Cloudy  N 8/0 (9/0) 18(64) 60 1021 / 30.14
 20:55 Partly Cloudy  N 9/0 (10/0) 18(64) 61 1020 / 30.12
 19:55 Partly Cloudy  N 9/0 (10/0) 18(64) 58 1020 / 30.12
 18:55 Partly Cloudy  NNE 12/0 (14/0) 19(65) 55 1020 / 30.12
 17:55 Partly Cloudy  NNE 12/0 (14/0) 19(67) 53 1020 / 30.12
 16:55 Few Clouds  N 12/0 (14/0) 20(67) 51 1020 / 30.13
 15:55 Partly Cloudy  N 11/0 (13/0) 20(68) 50 1021 / 30.14
 14:55 Partly Cloudy  N 11/0 (13/0) 20(68) 49 1021 / 30.15
 13:55 Mostly Cloudy  N 11/0 (13/0) 20(69) 55 1022 / 30.17
 12:55 Mostly Cloudy  N 9/0 (10/0) 20(68) 57 1022 / 30.17
 11:55 Mostly Cloudy  NNE 11/0 (13/0) 20(68) 54 1022 / 30.19
 10:55 Partly Cloudy  NNE 11/0 (13/0) 20(67) 59 1022 / 30.19
 09:55 Partly Cloudy  N 10/0 (12/0) 19(66) 67 1022 / 30.19
 08:55 Mostly Cloudy  NNE 12/0 (14/0) 18(64) 70 1022 / 30.19
 07:55 Mostly Cloudy Showers N 11/0 (13/0) 17(63) 72 1022 / 30.19
 07:30 Mostly Cloudy Showers N 14/0 (16/0) 17(62) 75 1022 / 30.19
 06:55 Mostly Cloudy Showers NNE 13/0 (15/0) 17(63) 69 1022 / 30.17
 06:39 Mostly Cloudy Showers NNE 11/0 (13/0) 18(64) 69 1022 / 30.17
 05:55 Mostly Cloudy  N 6/0 (7/0) 18(64) 67 1021 / 30.16
 04:55 Mostly Cloudy  N 7/0 (8/0) 18(64) 62 1021 / 30.16
 03:55 Partly Cloudy  NNE 9/0 (10/0) 18(64) 63 1022 / 30.17
 02:55 Mostly Cloudy  N 8/0 (9/0) 18(65) 59 1022 / 30.19
 01:55 Mostly Cloudy  N 8/0 (9/0) 18(64) 61 1023 / 30.21
 00:55 Partly Cloudy  N 9/0 (10/0) 18(65) 63 1024 / 30.23
 23:55 Mostly Cloudy  NNE 11/0 (13/0) 18(65) 66 1024 / 30.24
 22:55 Partly Cloudy  NE 8/0 (9/0) 18(64) 65 1024 / 30.23
 21:55 Partly Cloudy  NE 9/0 (10/0) 18(65) 66 1024 / 30.23
 20:55 Partly Cloudy  NE 10/0 (12/0) 18(65) 66 1023 / 30.22
 19:55 Mostly Cloudy  ENE 11/0 (13/0) 19(66) 66 1023 / 30.21
 18:55 Mostly Cloudy  ENE 11/0 (13/0) 19(67) 65 1023 / 30.20
Observations from our AWOS sites are available here (password and username are both 'guest').